Bay Area Logo

San Jose, CA Condo Real Estate Listings

756 Total Real Estate Listings * Click on table heading to sort
Date Posted Property Type Style Address Price Living Area Lot Size Price/Sq Ft.
2018-10-16 Condo 7150 Rainbow Drive San Jose, CA 95129 $899,888 968 sq. ft. 436 sq. ft. $930
2018-10-15 Condo 2767 Somerset Park San Jose, CA 95132 $490,000 677 sq. ft. 871 sq. ft. $724
2018-10-15 Condo 2902 Lambeth Court San Jose, CA 95132 $758,888 1,240 sq. ft. 1,742 sq. ft. $612
2018-10-15 Condo 3693 Cabernet Vineyards Circle San Jose, CA 95117 $975,000 1,496 sq. ft. 1,307 sq. ft. $652
2018-10-15 Condo 151 Yasou Demas Way San Jose, CA 95119 $799,000 1,318 sq. ft. 871 sq. ft. $606
2018-10-15 Condo 2043 Annerly Court San Jose, CA 95121 $649,900 988 sq. ft. 1,742 sq. ft. $658
2018-10-15 Condo 4033 Gold Run Way San Jose, CA 95136 $750,000 1,334 sq. ft. 1,307 sq. ft. $562
2018-10-13 Condo 1055 Capitol Avenue San Jose, CA 95133 $586,000 832 sq. ft. 871 sq. ft. $704
2018-10-13 Condo 5126 Graves Avenue San Jose, CA 95129 $1,428,000 1,650 sq. ft. 0 sq. ft. $865
2018-10-13 Condo 1445 Fruitdale Avenue San Jose, CA 95128 $649,950 767 sq. ft. 871 sq. ft. $847
2018-10-13 Condo 7517 Deveron Court San Jose, CA 95135 $794,500 1,572 sq. ft. 2,178 sq. ft. $505
2018-10-12 Condo Contemporary 3059 Ruby Avenue San Jose, CA 95135 $1,288,000 1,862 sq. ft. 3,049 sq. ft. $692
2018-10-12 Condo 492 Papaya Court San Jose, CA 95111 $498,888 1,157 sq. ft. 1,307 sq. ft. $431
2018-10-12 Condo 2615 Gimelli Way San Jose, CA 95133 $584,500 975 sq. ft. 1,307 sq. ft. $599
2018-10-12 Condo 77 Monte Verano Court San Jose, CA 95116 $389,888 597 sq. ft. 1,742 sq. ft. $653
2018-10-12 Condo 3372 Landess Avenue San Jose, CA 95132 $618,888 976 sq. ft. 871 sq. ft. $634
2018-10-12 Condo 55 Carnegie Square San Jose, CA 95116 $749,888 1,357 sq. ft. 1,307 sq. ft. $553
2018-10-12 Condo 25 3rd San Jose, CA 95113 $999,000 2,078 sq. ft. 2,178 sq. ft. $481
2018-10-12 Condo Contemporary 26 Kenbrook Circle San Jose, CA 95111 $600,000 1,094 sq. ft. 1,307 sq. ft. $548
2018-10-12 Condo 1060 Tekman Drive San Jose, CA 95122 $399,000 648 sq. ft. 436 sq. ft. $616
2018-10-11 Condo 4661 Albany Circle San Jose, CA 95129 $599,000 813 sq. ft. 1,742 sq. ft. $737
2018-10-11 Condo 808 Lenzen Avenue San Jose, CA 95126 $699,950 1,122 sq. ft. 1,307 sq. ft. $624
2018-10-11 Condo 5197 Cribari Hills San Jose, CA 95135 $499,000 1,223 sq. ft. 1,742 sq. ft. $408
2018-10-11 Condo 5701 Makati Circle San Jose, CA 95123 $499,000 690 sq. ft. 871 sq. ft. $723
2018-10-11 Condo 1094 Indian Summer Court San Jose, CA 95122 $524,999 1,056 sq. ft. 436 sq. ft. $497
2018-10-11 Condo 666 Teatree Court San Jose, CA 95128 $669,000 922 sq. ft. 1,742 sq. ft. $726
2018-10-11 Condo 13 Torregata Loop San Jose, CA 95134 $849,888 1,130 sq. ft. 871 sq. ft. $752
2018-10-11 Condo Traditional 307 Tradewinds Dr Drive San Jose, CA 95123 $525,000 992 sq. ft. 2,614 sq. ft. $529
2018-10-11 Condo 427 2nd Street San Jose, CA 95112 $650,000 789 sq. ft. 436 sq. ft. $824
2018-10-11 Condo 5981 Post Oak Circle San Jose, CA 95120 $1,389,000 2,454 sq. ft. 2,614 sq. ft. $566
2018-10-11 Condo 619 Teatree Court San Jose, CA 95128 $669,000 922 sq. ft. 1,742 sq. ft. $726
2018-10-11 Condo 2779 Lavender Terrace San Jose, CA 95111 $888,000 1,929 sq. ft. 1,742 sq. ft. $460
2018-10-11 Condo 1610 Vendre Place San Jose, CA 95131 $899,988 1,481 sq. ft. 1,742 sq. ft. $608
2018-10-11 Condo 2905 Renick Court San Jose, CA 95148 $560,000 952 sq. ft. 1,307 sq. ft. $588
2018-10-11 Condo Contemporary 2653 Heron Court San Jose, CA 95133 $839,000 1,400 sq. ft. 1,307 sq. ft. $599
2018-10-11 Condo 999 Gilchrist Drive San Jose, CA 95133 $449,000 903 sq. ft. 1,307 sq. ft. $497
2018-10-10 Condo 1027 Delna Manor Lane San Jose, CA 95128 $799,000 1,020 sq. ft. 871 sq. ft. $783
2018-10-10 Condo Contemporary 613 Teatree Court San Jose, CA 95128 $649,999 922 sq. ft. 1,742 sq. ft. $705
2018-10-10 Condo 691 Blackbury Lane San Jose, CA 95133 $988,888 1,506 sq. ft. 871 sq. ft. $657
2018-10-10 Condo 5278 Borneo Circle San Jose, CA 95123 $619,800 1,246 sq. ft. $497
2018-10-10 Condo Contemporary 691 Blackbury Ln San Jose, CA 95133 $988,888 1,506 sq. ft. 871 sq. ft. $657
2018-10-10 Condo Mediterranean 1021 Mallard Ridge Court San Jose, CA 95120 $1,225,000 1,835 sq. ft. 3,485 sq. ft. $668
2018-10-10 Condo Traditional 5497 Tradewinds Walkway San Jose, CA 95123 $475,000 810 sq. ft. 1,742 sq. ft. $586
2018-10-10 Condo Contemporary 5142 Le Miccine Terrace San Jose, CA 95129 $1,199,000 1,366 sq. ft. 871 sq. ft. $878
2018-10-10 Condo 2424 Sequester Court San Jose, CA 95133 $598,000 979 sq. ft. 871 sq. ft. $611
2018-10-10 Condo 545 Winterberry Way San Jose, CA 95129 $1,174,890 1,306 sq. ft. 1,307 sq. ft. $900
2018-10-10 Condo 2292 Sun Glory Lane San Jose, CA 95124 $749,000 998 sq. ft. 1,307 sq. ft. $750
2018-10-10 Condo 821 Printempo Place San Jose, CA 95134 $898,000 925 sq. ft. 1,742 sq. ft. $971
2018-10-10 Condo 1327 Starglo Place San Jose, CA 95131 $998,000 1,790 sq. ft. 436 sq. ft. $558
2018-10-10 Condo 2689 Lone Bluff Way San Jose, CA 95111 $488,000 867 sq. ft. 436 sq. ft. $563
2018-10-09 Condo 784 Delaware Avenue San Jose, CA 95123 $439,000 798 sq. ft. 7,841 sq. ft. $550
2018-10-09 Condo 2767 Somerset Park San Jose, CA 95132 $490,000 677 sq. ft. 871 sq. ft. $724
2018-10-09 Condo 507 Dix Way San Jose, CA 95125 $599,950 895 sq. ft. 3,049 sq. ft. $670
2018-10-09 Condo 7735 Kilmarnok Drive San Jose, CA 95135 $800,000 1,804 sq. ft. 436 sq. ft. $443
2018-10-09 Condo Traditional 45 Hobson Street San Jose, CA 95110 $599,000 907 sq. ft. 1,307 sq. ft. $660
2018-10-09 Condo 2678 Villa Cortona Way San Jose, CA 95125 $849,000 1,963 sq. ft. 1,307 sq. ft. $432
2018-10-09 Condo 711 Batista Drive San Jose, CA 95136 $689,000 1,250 sq. ft. 1,742 sq. ft. $551
2018-10-09 Condo 1496 Douglas Street San Jose, CA 95126 $799,000 1,130 sq. ft. 1,742 sq. ft. $707
2018-10-09 Condo 2731 Viterbo Court San Jose, CA 95111 $995,888 2,000 sq. ft. 436 sq. ft. $498
2018-10-08 Condo 88 San Fernando Street San Jose, CA 95113 $588,000 673 sq. ft. 436 sq. ft. $874
2018-10-08 Condo 512 Shadowgraph Drive San Jose, CA 95110 $699,000 871 sq. ft. 871 sq. ft. $803
2018-10-08 Condo 2141 Cerro Terbi Court San Jose, CA 95116 $574,000 1,180 sq. ft. 871 sq. ft. $486
2018-10-08 Condo 465 Navaro Way San Jose, CA 95134 $695,000 948 sq. ft. 871 sq. ft. $733
2018-10-08 Condo Contemporary; Mediterranean 801 Winchester Boulevard San Jose, CA 95128 $725,000 692 sq. ft. 871 sq. ft. $1,048
2018-10-08 Condo 2561 Yerba Bank Court San Jose, CA 95121 $795,000 1,216 sq. ft. 871 sq. ft. $654
2018-10-07 Condo 6598 Alleghany Court San Jose, CA 95120 $999,999 1,451 sq. ft. 1,742 sq. ft. $689
2018-10-06 Condo 88 San Fernando Street San Jose, CA 95113 $688,000 709 sq. ft. 436 sq. ft. $970
2018-10-06 Condo Contemporary 225 San Antonio Place San Jose, CA 95116 $738,000 1,405 sq. ft. 2,178 sq. ft. $525
2018-10-06 Condo Contemporary 144 3rd Street San Jose, CA 95112 $875,000 1,488 sq. ft. 436 sq. ft. $588
2018-10-06 Condo 885 Wyman Way San Jose, CA 95133 $468,000 910 sq. ft. 1,307 sq. ft. $514
2018-10-06 Condo 5492 Tyhurst Walkway San Jose, CA 95123 $480,000 903 sq. ft. 1,742 sq. ft. $532
2018-10-05 Condo 4859 Scout Court San Jose, CA 95136 $659,000 992 sq. ft. 436 sq. ft. $664
2018-10-05 Condo 3028 Shadow Springs Place San Jose, CA 95121 $448,888 888 sq. ft. 871 sq. ft. $506
2018-10-05 Condo 2055 San Antonio Street San Jose, CA 95116 $699,000 1,271 sq. ft. 871 sq. ft. $550
2018-10-05 Condo 2288 Almaden Road San Jose, CA 95125 $798,000 1,163 sq. ft. 1,307 sq. ft. $686
2018-10-05 Condo Contemporary 320 Auburn Way San Jose, CA 95129 $688,888 924 sq. ft. 871 sq. ft. $746
2018-10-05 Condo 5881 Lake Almanor Drive San Jose, CA 95123 $659,000 1,002 sq. ft. 871 sq. ft. $658
2018-10-05 Condo 546 22nd Street San Jose, CA 95116 $775,000 1,489 sq. ft. 1,307 sq. ft. $520
2018-10-05 Condo Contemporary 1615 Mabury Road San Jose, CA 95133 $998,000 1,778 sq. ft. 1,742 sq. ft. $561
2018-10-05 Condo 1350 Capitol Avenue San Jose, CA 95132 $998,000 1,605 sq. ft. 1,307 sq. ft. $622
2018-10-05 Condo 5539 Don Scala Court San Jose, CA 95123 $518,815 950 sq. ft. 871 sq. ft. $546
2018-10-05 Condo 755 Bonita Place San Jose, CA 95116 $599,900 1,010 sq. ft. 871 sq. ft. $594
2018-10-04 Condo 1654 Los Suenos Avenue San Jose, CA 95116 $624,000 1,254 sq. ft. 2,178 sq. ft. $498
2018-10-04 Condo 320 Auburn Way San Jose, CA 95129 $688,888 924 sq. ft. 11,761 sq. ft. $746
2018-10-04 Condo Contemporary 601 Hermes Court San Jose, CA 95111 $719,888 1,496 sq. ft. 3,485 sq. ft. $481
2018-10-04 Condo Contemporary 2925 Florence Avenue San Jose, CA 95127 $525,000 960 sq. ft. 436 sq. ft. $547
2018-10-04 Condo 1538 Meadow Ridge Circle San Jose, CA 95131 $799,000 988 sq. ft. 1,307 sq. ft. $809
2018-10-04 Condo 88 Bush Street San Jose, CA 95126 $820,000 841 sq. ft. 436 sq. ft. $975
2018-10-04 Condo 1310 Saddle Rack Street San Jose, CA 95126 $899,888 1,407 sq. ft. 1,307 sq. ft. $640
2018-10-04 Condo 1205 La Terrace Circle San Jose, CA 95123 $589,900 904 sq. ft. 3,485 sq. ft. $653
2018-10-04 Condo 1128 Quail Run Court San Jose, CA 95118 $779,900 1,420 sq. ft. 1,307 sq. ft. $549
2018-10-04 Condo 6221 Barb Werner Lane San Jose, CA 95119 $740,000 1,293 sq. ft. 871 sq. ft. $572
2018-10-04 Condo Contemporary 447 Colony Knoll Dr San Jose, CA 95123 $599,000 942 sq. ft. 436 sq. ft. $636
2018-10-03 Condo 5525 Great Oaks Parkway San Jose, CA 95123 $798,888 1,531 sq. ft. 2,178 sq. ft. $522
2018-10-03 Condo 3265 Sangiovese Place San Jose, CA 95135 $895,000 1,398 sq. ft. 871 sq. ft. $640
2018-10-03 Condo 2635 Senter Creek Court San Jose, CA 95111 $575,000 1,146 sq. ft. 436 sq. ft. $502
2018-10-03 Condo 3819 7 Trees Boulevard San Jose, CA 95111 $399,888 999 sq. ft. 871 sq. ft. $400
2018-10-03 Condo 2147 Rio Guacimal Court San Jose, CA 95116 $645,000 1,474 sq. ft. 871 sq. ft. $438
2018-10-03 Condo 952 11th Street San Jose, CA 95112 $699,000 1,241 sq. ft. 1,307 sq. ft. $563
2018-10-03 Condo 3167 Payne Avenue San Jose, CA 95117 $849,000 1,360 sq. ft. 1,742 sq. ft. $624
2018-10-03 Condo 6931 Chantel Court San Jose, CA 95129 $928,000 1,044 sq. ft. 3,049 sq. ft. $889
2018-10-03 Condo 823 Lotus Flower Loop San Jose, CA 95123 $899,000 1,793 sq. ft. 1,307 sq. ft. $501
2018-10-02 Condo 1390 Meadow Ridge Circle San Jose, CA 95131 $825,000 1,203 sq. ft. 1,307 sq. ft. $686
2018-10-02 Condo 4789 Pine Forest Lane San Jose, CA 95118 $749,000 1,060 sq. ft. 1,307 sq. ft. $707
2018-10-02 Condo 6965 Rodling Drive San Jose, CA 95138 $638,000 1,093 sq. ft. 436 sq. ft. $584
2018-10-02 Condo 345 Pasquale Court San Jose, CA 95133 $720,000 1,465 sq. ft. 1,307 sq. ft. $491
2018-10-02 Condo 1299 Foxwood Drive San Jose, CA 95118 $978,000 1,533 sq. ft. 2,178 sq. ft. $638
2018-10-02 Condo 5308 Borneo Circle San Jose, CA 95123 $550,000 1,122 sq. ft. 1,307 sq. ft. $490
2018-10-02 Condo 4361 Red Maple Way San Jose, CA 95138 $1,399,000 2,687 sq. ft. 3,920 sq. ft. $521
2018-10-02 Condo 427 N 2nd Street San Jose, CA 95112 $699,000 976 sq. ft. 436 sq. ft. $716
2018-10-02 Condo Contemporary 291 Kenbrook Circle San Jose, CA 95111 $529,999 1,094 sq. ft. 1,307 sq. ft. $484
2018-10-01 Condo 61 Cherry Ridge Court San Jose, CA 95136 $599,000 986 sq. ft. 871 sq. ft. $608
2018-10-01 Condo 2120 Alexian Drive San Jose, CA 95116 $585,000 1,165 sq. ft. 871 sq. ft. $502
2018-10-01 Condo 93 Esfahan Drive San Jose, CA 95111 $735,000 1,387 sq. ft. 1,307 sq. ft. $530
2018-10-01 Condo 301 Flinder Place San Jose, CA 95123 $849,900 1,644 sq. ft. 2,178 sq. ft. $517
2018-10-01 Condo 1550 Technology Drive San Jose, CA 95110 $649,000 875 sq. ft. 871 sq. ft. $742
2018-10-01 Condo 1611 Mercado Way San Jose, CA 95131 $899,888 1,481 sq. ft. 1,742 sq. ft. $608
2018-10-01 Condo 1050 Whitebick Drive San Jose, CA 95129 $1,550,000 1,532 sq. ft. 1,742 sq. ft. $1,012
2018-10-01 Condo 5689 Playa Del Rey San Jose, CA 95123 $495,000 903 sq. ft. $548
2018-09-30 Condo 1276 Poker Flat Place San Jose, CA 95120 $1,275,000 2,388 sq. ft. 3,485 sq. ft. $534
2018-09-30 Condo 2216 Almaden Road San Jose, CA 95125 $750,000 1,163 sq. ft. 1,307 sq. ft. $645
2018-09-29 Condo 276 Tradewinds Drive San Jose, CA 95123 $510,000 992 sq. ft. 2,614 sq. ft. $514
2018-09-29 Condo 6345 Whaley Drive San Jose, CA 95135 $698,800 1,197 sq. ft. $584
2018-09-29 Condo 763 Warring Drive San Jose, CA 95123 $498,000 903 sq. ft. 8,276 sq. ft. $552
2018-09-29 Condo Contemporary 1475 De Rose Way San Jose, CA 95126 $719,000 1,224 sq. ft. 1,307 sq. ft. $587
2018-09-28 Condo Contemporary 3120 Vinifera Drive San Jose, CA 95135 $1,050,000 1,398 sq. ft. 871 sq. ft. $751
2018-09-28 Condo 155 Monte Verano Court San Jose, CA 95116 $398,000 877 sq. ft. 1,742 sq. ft. $454
2018-09-28 Condo Contemporary 33 Kenbrook Circle San Jose, CA 95111 $645,000 1,094 sq. ft. 1,307 sq. ft. $590
2018-09-28 Condo 2675 Yerba Cliff Court San Jose, CA 95121 $699,000 936 sq. ft. 871 sq. ft. $747
2018-09-28 Condo 353 Blossom Hill Road San Jose, CA 95123 $419,000 810 sq. ft. 1,742 sq. ft. $517
2018-09-28 Condo 2383 Antelope Drive San Jose, CA 95133 $649,000 1,199 sq. ft. 1,742 sq. ft. $541
2018-09-28 Condo 727 Balfour Drive San Jose, CA 95111 $549,900 1,075 sq. ft. 436 sq. ft. $512
2018-09-28 Condo 833 Berryessa Road San Jose, CA 95112 $1,120,000 1,660 sq. ft. 1,742 sq. ft. $675
2018-09-28 Condo 1054 Villa Maria Court San Jose, CA 95125 $715,000 1,353 sq. ft. 1,307 sq. ft. $528
2018-09-28 Condo 623 Avenue One San Jose, CA 95123 $999,800 2,205 sq. ft. 2,178 sq. ft. $453
2018-09-27 Condo 5711 Makati Circle San Jose, CA 95123 $472,000 543 sq. ft. 871 sq. ft. $869
2018-09-27 Condo 304 Tradewinds Drive San Jose, CA 95123 $495,000 959 sq. ft. 2,614 sq. ft. $516
2018-09-27 Condo 1489 Carrington Circle San Jose, CA 95125 $1,038,000 1,493 sq. ft. 1,742 sq. ft. $695
2018-09-27 Condo 1550 Technology Drive San Jose, CA 95110 $695,000 831 sq. ft. 871 sq. ft. $836
2018-09-27 Condo 3359 City Lights Place San Jose, CA 95136 $868,000 1,443 sq. ft. 436 sq. ft. $602
2018-09-27 Condo 3101 White Zinfandel Place San Jose, CA 95135 $1,100,000 1,626 sq. ft. 1,307 sq. ft. $677
2018-09-27 Condo Contemporary 1242 Coyote Creek Place San Jose, CA 95116 $430,000 633 sq. ft. 1,307 sq. ft. $679
2018-09-26 Condo 2098 Mataro Way San Jose, CA 95135 $825,000 1,629 sq. ft. 3,049 sq. ft. $506
2018-09-26 Condo 2559 Yerba Bank Court San Jose, CA 95121 $689,000 1,050 sq. ft. 1,307 sq. ft. $656
2018-09-26 Condo 1011 Giacomo Lane San Jose, CA 95131 $1,199,000 1,847 sq. ft. $649
2018-09-26 Condo 1011 Giacomo Lane San Jose, CA 95131 $974,000 1,371 sq. ft. $710
2018-09-26 Condo 896 Gilchrist Drive San Jose, CA 95133 $468,000 810 sq. ft. 1,307 sq. ft. $578
2018-09-26 Condo 3585 Flint Creek Drive San Jose, CA 95148 $699,888 1,473 sq. ft. 2,178 sq. ft. $475
2018-09-26 Condo 657 Martinique Court San Jose, CA 95123 $799,000 1,468 sq. ft. 1,742 sq. ft. $544
2018-09-26 Condo 5815 Brandon Court San Jose, CA 95123 $899,000 1,712 sq. ft. 1,307 sq. ft. $525
2018-09-26 Condo Mediterranean 416 Casselino Drive San Jose, CA 95136 $999,000 3,372 sq. ft. 3,920 sq. ft. $296
2018-09-26 Condo 293 Tradewinds Drive San Jose, CA 95123 $510,000 959 sq. ft. 2,614 sq. ft. $532
2018-09-25 Condo 629 Adeline Avenue San Jose, CA 95136 $795,000 1,104 sq. ft. 1,742 sq. ft. $720
2018-09-25 Condo 144 3rd Street San Jose, CA 95112 $850,000 1,421 sq. ft. 1,742 sq. ft. $598
2018-09-25 Condo 810 Catkin Court San Jose, CA 95128 $669,000 922 sq. ft. 871 sq. ft. $726
2018-09-25 Condo 3177 Shofner Place San Jose, CA 95111 $509,999 1,322 sq. ft. 871 sq. ft. $386
2018-09-25 Condo 3211 Groth Court San Jose, CA 95111 $549,990 1,392 sq. ft. 871 sq. ft. $395
2018-09-25 Condo 5973 Lake Almanor Drive San Jose, CA 95123 $649,888 852 sq. ft. 871 sq. ft. $763
2018-09-25 Condo 7050 Rainbow Drive San Jose, CA 95129 $1,248,000 1,239 sq. ft. 436 sq. ft. $1,007
2018-09-25 Condo 352 Coyote Creek Circle San Jose, CA 95116 $415,000 633 sq. ft. 1,307 sq. ft. $656
2018-09-25 Condo Mediterranean 1121 Camber Tree Court San Jose, CA 95120 $1,049,000 1,824 sq. ft. 2,614 sq. ft. $575
2018-09-25 Condo 451 Velasco Drive San Jose, CA 95123 $499,000 950 sq. ft. 871 sq. ft. $525
2018-09-25 Condo 3573 Ivalynn Place San Jose, CA 95132 $598,000 934 sq. ft. 5,227 sq. ft. $640
2018-09-25 Condo 384 Castlemaine Court San Jose, CA 95136 $749,888 1,376 sq. ft. 1,307 sq. ft. $545
2018-09-25 Condo 5927 Eastman Lake Drive San Jose, CA 95123 $689,000 982 sq. ft. 1,307 sq. ft. $702
2018-09-25 Condo 858 Minnesota Avenue San Jose, CA 95125 $988,000 1,527 sq. ft. 1,742 sq. ft. $647
2018-09-25 Condo 2561 Tolworth Drive San Jose, CA 95128 $998,000 1,577 sq. ft. 1,307 sq. ft. $633
2018-09-25 Condo 5880 Dry Oak Drive San Jose, CA 95120 $1,250,000 2,334 sq. ft. 3,920 sq. ft. $536
2018-09-25 Condo 1060 3rd Street San Jose, CA 95112 $675,000 1,100 sq. ft. 871 sq. ft. $614
2018-09-25 Condo Contemporary 2418 Stearman Lane San Jose, CA 95132 $998,000 1,526 sq. ft. 1,307 sq. ft. $654
2018-09-25 Condo 5721 Makati Circle San Jose, CA 95123 $449,888 543 sq. ft. 871 sq. ft. $829
2018-09-25 Condo 1008 Summerplace Drive San Jose, CA 95122 $449,000 1,004 sq. ft. 436 sq. ft. $447
2018-09-25 Condo Traditional 1254 Sierra Village Pl San Jose, CA 95132 $988,000 1,445 sq. ft. 1,742 sq. ft. $684
2018-09-24 Condo 2503 Easton Place San Jose, CA 95133 $658,888 975 sq. ft. 1,307 sq. ft. $676
2018-09-24 Condo 5845 Lake Crowley Place San Jose, CA 95123 $689,000 1,002 sq. ft. 436 sq. ft. $688
2018-09-24 Condo 6133 Elmbridge Drive San Jose, CA 95129 $1,398,000 1,214 sq. ft. 1,742 sq. ft. $1,152
2018-09-23 Condo Mediterranean 1390 Saddle Rack Street San Jose, CA 95126 $799,000 1,131 sq. ft. 1,307 sq. ft. $706
2018-09-23 Condo 511 Mariani Lane San Jose, CA 95112 $949,000 1,620 sq. ft. 871 sq. ft. $586
2018-09-22 Condo 629 Boardwalk San Jose, CA 95112 $899,000 1,224 sq. ft. 1,307 sq. ft. $734
2018-09-22 Condo 3312 La Terrace Circle San Jose, CA 95123 $620,000 904 sq. ft. 2,614 sq. ft. $686
2018-09-21 Condo Contemporary 88 Jackson Ave San Jose, CA 95116 $589,900 1,056 sq. ft. 871 sq. ft. $559
2018-09-21 Condo 5972 Reddick Loop San Jose, CA 95123 $899,000 1,901 sq. ft. 1,307 sq. ft. $473
2018-09-21 Condo Contemporary 680 Lanfair Dr San Jose, CA 95136 $525,000 912 sq. ft. 436 sq. ft. $576
2018-09-21 Condo Contemporary 1339 Star Bush Lane San Jose, CA 95118 $938,000 1,318 sq. ft. 2,178 sq. ft. $712
2018-09-21 Condo 1524 Marlene Court San Jose, CA 95118 $749,950 1,308 sq. ft. 1,307 sq. ft. $573
2018-09-21 Condo Contemporary 1892 Newbury Park Drive San Jose, CA 95133 $988,888 1,459 sq. ft. 871 sq. ft. $678
2018-09-21 Condo 5486 Sean Circle San Jose, CA 95123 $599,000 1,060 sq. ft. 1,307 sq. ft. $565
2018-09-20 Condo 1338 Shore Drive San Jose, CA 95131 $1,218,000 1,851 sq. ft. 436 sq. ft. $658
2018-09-20 Condo 2424 Balme Drive San Jose, CA 95122 $499,900 912 sq. ft. 871 sq. ft. $548
2018-09-20 Condo 1516 Willard Garden Court San Jose, CA 95126 $698,000 1,176 sq. ft. 1,307 sq. ft. $594
2018-09-20 Condo 2857 Buena Knoll Court San Jose, CA 95121 $698,000 1,050 sq. ft. 436 sq. ft. $665
2018-09-20 Condo Contemporary 2251 Warfield Way San Jose, CA 95122 $528,888 885 sq. ft. 871 sq. ft. $598
2018-09-20 Condo 6219 Wehner Way San Jose, CA 95135 $680,000 1,340 sq. ft. 2,614 sq. ft. $507
2018-09-20 Condo Contemporary 1068 Summershore Court San Jose, CA 95122 $399,950 730 sq. ft. 871 sq. ft. $548
2018-09-20 Condo Contemporary 2035 Nola Ranch Way San Jose, CA 95133 $988,000 1,528 sq. ft. 436 sq. ft. $647
2018-09-20 Condo Contemporary 183 Sunwood Meadows Place San Jose, CA 95119 $560,000 920 sq. ft. 1,307 sq. ft. $609
2018-09-20 Condo 5478 Sean Circle San Jose, CA 95123 $599,000 1,060 sq. ft. 3,485 sq. ft. $565
2018-09-20 Condo 2240 Alexian Drive San Jose, CA 95116 $488,000 976 sq. ft. 2,614 sq. ft. $500
2018-09-20 Condo 5492 Don Rodolfo Court San Jose, CA 95123 $499,000 950 sq. ft. 871 sq. ft. $525
2018-09-20 Condo 95 Hobson Street San Jose, CA 95110 $599,000 1,030 sq. ft. $582
2018-09-20 Condo 4691 Albany Circle San Jose, CA 95129 $560,000 813 sq. ft. 1,742 sq. ft. $689
2018-09-20 Condo 339 Casselino Drive San Jose, CA 95136 $949,000 1,810 sq. ft. 871 sq. ft. $524
2018-09-20 Condo 7409 Tulare Hill Drive San Jose, CA 95139 $692,500 1,392 sq. ft. 1,742 sq. ft. $497
2018-09-20 Condo 2926 Lambeth Court San Jose, CA 95132 $798,800 1,240 sq. ft. 1,742 sq. ft. $644
2018-09-20 Condo 1375 Lick Avenue San Jose, CA 95110 $768,888 1,024 sq. ft. 871 sq. ft. $751
2018-09-19 Condo 2606 Yerba Vista Court San Jose, CA 95121 $795,000 1,216 sq. ft. 871 sq. ft. $654
2018-09-19 Condo 2569 Yerba Bank Court San Jose, CA 95121 $699,950 1,050 sq. ft. 1,307 sq. ft. $667
2018-09-19 Condo 3128 Loma Verde San Jose, CA 95117 $450,000 544 sq. ft. $827
2018-09-19 Condo 197 Coy Drive San Jose, CA 95123 $450,000 903 sq. ft. 3,049 sq. ft. $498
2018-09-19 Condo 531 Autumn Meadow Drive San Jose, CA 95123 $899,000 1,712 sq. ft. 1,307 sq. ft. $525
2018-09-19 Condo 3133 Loma Verde Drive San Jose, CA 95117 $790,000 1,366 sq. ft. 1,742 sq. ft. $578
2018-09-19 Condo 2853 Lavender Terrace San Jose, CA 95111 $849,000 1,929 sq. ft. 1,742 sq. ft. $440
2018-09-19 Condo 3566 Juergen Drive San Jose, CA 95121 $749,000 1,625 sq. ft. 2,614 sq. ft. $461
2018-09-19 Condo Contemporary 3358 Napoli Place San Jose, CA 95135 $1,128,890 1,601 sq. ft. 2,614 sq. ft. $705
2018-09-19 Condo Contemporary; Traditional 5923 Kyburz Place San Jose, CA 95120 $1,260,000 2,175 sq. ft. 3,049 sq. ft. $579
2018-09-19 Condo 516 Martha Street San Jose, CA 95112 $500,000 474 sq. ft. 436 sq. ft. $1,055
2018-09-19 Condo 919 Lake Tahoe Court San Jose, CA 95123 $609,000 852 sq. ft. 871 sq. ft. $715
2018-09-19 Condo 6974 Gregorich Drive San Jose, CA 95138 $785,000 1,377 sq. ft. 871 sq. ft. $570
2018-09-18 Condo 2117 Lindsey Court San Jose, CA 95125 $799,000 1,144 sq. ft. 1,742 sq. ft. $698
2018-09-18 Condo 402 Marble Arch Avenue San Jose, CA 95136 $819,000 1,264 sq. ft. 1,307 sq. ft. $648
2018-09-18 Condo 309 Tradewinds Drive San Jose, CA 95123 $439,000 722 sq. ft. 871 sq. ft. $608
2018-09-18 Condo 8371 Riesling Way San Jose, CA 95135 $665,000 1,370 sq. ft. 2,178 sq. ft. $485
2018-09-18 Condo 77 Rancho Drive San Jose, CA 95111 $429,000 822 sq. ft. 2,178 sq. ft. $522
2018-09-18 Condo 1995 Uphall Court San Jose, CA 95121 $649,950 1,320 sq. ft. 1,742 sq. ft. $492
2018-09-18 Condo 3372 Landess Avenue San Jose, CA 95132 $690,000 1,130 sq. ft. 871 sq. ft. $611
2018-09-18 Condo 680 Willow Street San Jose, CA 95125 $899,950 1,529 sq. ft. 1,307 sq. ft. $589
2018-09-18 Condo Contemporary 3372 Landess Ave San Jose, CA 95132 $690,000 1,130 sq. ft. 871 sq. ft. $611
2018-09-18 Condo 1120 Kayellen Court San Jose, CA 95125 $998,000 1,780 sq. ft. 1,742 sq. ft. $561
2018-09-18 Condo 519 Autumn Meadow Drive San Jose, CA 95123 $988,000 2,205 sq. ft. 1,742 sq. ft. $448
2018-09-18 Condo Contemporary 532 Almaden Walk Loop San Jose, CA 95125 $775,000 1,282 sq. ft. 436 sq. ft. $605
2018-09-18 Condo 5029 Grey Feather Circle San Jose, CA 95136 $509,888 816 sq. ft. 2,614 sq. ft. $625
2018-09-18 Condo 1118 Dinkel Court San Jose, CA 95118 $949,000 1,573 sq. ft. 1,742 sq. ft. $603
2018-09-18 Condo Traditional 530 Holly Hock Court San Jose, CA 95117 $625,000 712 sq. ft. 871 sq. ft. $878
2018-09-18 Condo 1992 Uphall Court San Jose, CA 95121 $674,999 1,320 sq. ft. 1,742 sq. ft. $511
2018-09-17 Condo Traditional 1491 Carmen Court San Jose, CA 95121 $598,000 1,474 sq. ft. 871 sq. ft. $406
2018-09-17 Condo Traditional 2651 Heritage Park Circle San Jose, CA 95132 $899,000 1,670 sq. ft. 1,742 sq. ft. $538
2018-09-17 Condo 2785 Bascom Avenue San Jose, CA 95124 $799,888 1,081 sq. ft. 1,307 sq. ft. $740
2018-09-17 Condo 4606 Hampton Falls Place San Jose, CA 95136 $895,000 1,745 sq. ft. 871 sq. ft. $513
2018-09-17 Condo 7324 Via Laguna San Jose, CA 95135 $725,000 1,568 sq. ft. 11,326 sq. ft. $462
2018-09-17 Condo 5353 Cribari Dell San Jose, CA 95135 $399,000 1,223 sq. ft. 1,307 sq. ft. $326
2018-09-17 Condo Contemporary 1637 Thorncrest Drive San Jose, CA 95131 $759,500 922 sq. ft. 871 sq. ft. $824
2018-09-16 Condo 1573 De Rome Drive San Jose, CA 95131 $929,000 1,171 sq. ft. $793
2018-09-16 Condo 1008 Abruzzo Lane San Jose, CA 95131 $1,284,290 1,847 sq. ft. $695
2018-09-16 Condo 1601 Murasky Place San Jose, CA 95131 $1,248,890 2,004 sq. ft. 2,178 sq. ft. $623
2018-09-15 Condo Mediterranean 2177 Alum Rock Avenue San Jose, CA 95116 $499,000 996 sq. ft. 1,307 sq. ft. $501
2018-09-15 Condo 4950 Flat Rock Circle San Jose, CA 95136 $589,000 988 sq. ft. 3,485 sq. ft. $596
2018-09-15 Condo 2311 Silver Breeze Court San Jose, CA 95138 $948,000 1,590 sq. ft. 3,485 sq. ft. $596
2018-09-14 Condo Traditional 2652 Salome Court San Jose, CA 95121 $650,000 1,474 sq. ft. 1,742 sq. ft. $441
2018-09-14 Condo 753 Warring Drive San Jose, CA 95123 $519,950 903 sq. ft. 3,049 sq. ft. $576
2018-09-14 Condo 3694 Rocky Creek Court San Jose, CA 95148 $675,000 1,473 sq. ft. 1,742 sq. ft. $458
2018-09-14 Condo 1696 Alder Creek Court San Jose, CA 95148 $758,000 1,622 sq. ft. 1,742 sq. ft. $467
2018-09-14 Condo Contemporary 417 Coyote Creek Circle San Jose, CA 95116 $499,950 849 sq. ft. 4,356 sq. ft. $589
2018-09-14 Condo 610 Avenue One San Jose, CA 95123 $989,000 2,258 sq. ft. 1,742 sq. ft. $438
2018-09-14 Condo 1035 Forest Knoll Drive San Jose, CA 95129 $1,599,890 1,532 sq. ft. 1,742 sq. ft. $1,044
2018-09-14 Condo 490 Marble Arch Avenue San Jose, CA 95136 $869,000 1,690 sq. ft. 871 sq. ft. $514
2018-09-14 Condo Contemporary 490 Marble Arch Ave San Jose, CA 95136 $869,000 1,690 sq. ft. 1,742 sq. ft. $514
2018-09-14 Condo 2101 Winepol Loop San Jose, CA 95125 $799,000 1,144 sq. ft. 2,178 sq. ft. $698
2018-09-14 Condo 1026 Vanilla Walkway San Jose, CA 95133 $998,000 1,697 sq. ft. 871 sq. ft. $588
2018-09-13 Condo 1575 Delante Terrace San Jose, CA 95118 $748,888 1,013 sq. ft. 871 sq. ft. $739
2018-09-13 Condo 1019 Esparanza Way San Jose, CA 95138 $695,000 1,291 sq. ft. 1,307 sq. ft. $538
2018-09-13 Condo 247 Capitol Avenue San Jose, CA 95127 $339,888 777 sq. ft. 871 sq. ft. $437
2018-09-13 Condo 255 Montalcino Circle San Jose, CA 95111 $950,000 2,042 sq. ft. 1,307 sq. ft. $465
2018-09-13 Condo 1468 Golden Meadow Square San Jose, CA 95117 $799,000 1,056 sq. ft. 1,307 sq. ft. $757
2018-09-13 Condo Contemporary 680 Lanfair Drive San Jose, CA 95136 $525,000 912 sq. ft. 3,485 sq. ft. $576
2018-09-13 Condo 8388 Riesling Way San Jose, CA 95135 $799,888 1,646 sq. ft. 2,614 sq. ft. $486
2018-09-13 Condo 5465 Don Edmondo Court San Jose, CA 95123 $499,000 950 sq. ft. 871 sq. ft. $525
2018-09-13 Condo Contemporary 2170 Luz Avenue San Jose, CA 95116 $549,000 1,165 sq. ft. 871 sq. ft. $471
2018-09-13 Condo Contemporary 59 Muirfield Court San Jose, CA 95116 $395,000 780 sq. ft. 436 sq. ft. $506
2018-09-13 Condo Traditional 130 Baroni Avenue San Jose, CA 95136 $788,800 1,482 sq. ft. 4,356 sq. ft. $532
2018-09-12 Condo 952 11th Street San Jose, CA 95112 $560,000 1,062 sq. ft. 1,307 sq. ft. $527
2018-09-12 Condo 144 3rd Street San Jose, CA 95112 $799,000 1,421 sq. ft. 1,742 sq. ft. $562
2018-09-12 Condo Contemporary 88 Jackson Avenue San Jose, CA 95116 $589,900 1,056 sq. ft. 1,307 sq. ft. $559
2018-09-12 Condo 1062 Summerplace Drive San Jose, CA 95122 $557,770 1,094 sq. ft. 436 sq. ft. $510
2018-09-12 Condo 1047 Niguel Lane San Jose, CA 95138 $749,000 1,083 sq. ft. 436 sq. ft. $692
2018-09-12 Condo 6024 Montgomery San Jose, CA 95135 $580,000 1,300 sq. ft. 1,742 sq. ft. $446
2018-09-12 Condo 4950 Canto Drive San Jose, CA 95124 $639,000 851 sq. ft. 871 sq. ft. $751
2018-09-12 Condo 1064 Yarwood Court San Jose, CA 95128 $669,000 922 sq. ft. 871 sq. ft. $726
2018-09-12 Condo 3108 Empoli Street San Jose, CA 95136 $939,000 1,647 sq. ft. 1,742 sq. ft. $570
2018-09-12 Condo 4667 Persimmon Place San Jose, CA 95129 $1,050,000 1,230 sq. ft. 1,307 sq. ft. $854
2018-09-12 Condo 422 Camille Circle San Jose, CA 95134 $1,099,000 1,810 sq. ft. 1,307 sq. ft. $607
2018-09-12 Condo 5110 Ruffino Terrace San Jose, CA 95129 $1,300,000 1,409 sq. ft. 871 sq. ft. $923
2018-09-12 Condo 296 Tradewinds Drive San Jose, CA 95123 $489,888 959 sq. ft. 871 sq. ft. $511
2018-09-12 Condo 3108 La Terrace Circle San Jose, CA 95123 $645,000 904 sq. ft. 3,920 sq. ft. $714
2018-09-12 Condo 247 Capitol Avenue San Jose, CA 95127 $468,000 955 sq. ft. 871 sq. ft. $490
2018-09-12 Condo Contemporary 1466 Neleigh Place San Jose, CA 95131 $870,000 1,171 sq. ft. 436 sq. ft. $743
2018-09-12 Condo 5819 Brandon Court San Jose, CA 95123 $895,000 1,712 sq. ft. 1,307 sq. ft. $523
2018-09-12 Condo Contemporary 3588 Klaus Dr San Jose, CA 95121 $819,000 1,625 sq. ft. 1,742 sq. ft. $504
2018-09-11 Condo 809 Auzerais Avenue San Jose, CA 95126 $849,000 1,229 sq. ft. 1,307 sq. ft. $691
2018-09-11 Condo 331 Shadow Run Drive San Jose, CA 95110 $689,000 871 sq. ft. 5,375 sq. ft. $791
2018-09-11 Condo 574 7th Street San Jose, CA 95112 $949,000 1,498 sq. ft. 7,841 sq. ft. $634
2018-09-11 Condo Spanish 1634 Branham Lane San Jose, CA 95118 $849,000 1,134 sq. ft. 1,742 sq. ft. $749
2018-09-11 Condo 3588 Klaus Drive San Jose, CA 95121 $825,000 1,625 sq. ft. 1,742 sq. ft. $508
2018-09-11 Condo 7630 Buckhaven Drive San Jose, CA 95135 $829,000 1,572 sq. ft. 2,178 sq. ft. $527
2018-09-10 Condo 1020 Bellante San Jose, CA 95131 $929,000 1,171 sq. ft. 1,172 sq. ft. $793
2018-09-10 Condo 329 Vista Roma Way San Jose, CA 95136 $949,000 1,878 sq. ft. 3,049 sq. ft. $505
2018-09-10 Condo 882 Font Terrace San Jose, CA 95126 $1,198,000 1,930 sq. ft. 871 sq. ft. $621
2018-09-10 Condo 5579 Judith Street San Jose, CA 95123 $439,000 798 sq. ft. 1,742 sq. ft. $550
2018-09-10 Condo 7652 Falkirk Drive San Jose, CA 95135 $725,000 1,307 sq. ft. 1,742 sq. ft. $555
2018-09-10 Condo 880 White Moonstone Loop San Jose, CA 95123 $889,000 1,793 sq. ft. 1,307 sq. ft. $496
2018-09-10 Condo 34 Cherry Crest Lane San Jose, CA 95136 $629,000 986 sq. ft. 871 sq. ft. $638
2018-09-10 Condo 3586 Payne Avenue San Jose, CA 95117 $599,000 1,080 sq. ft. 1,742 sq. ft. $555
2018-09-09 Condo 7060 Cypress Point Court San Jose, CA 95139 $729,888 1,820 sq. ft. 2,178 sq. ft. $401
2018-09-08 Condo 1 Julian Street San Jose, CA 95112 $898,000 1,348 sq. ft. 871 sq. ft. $666
2018-09-08 Condo 3188 Kenhill Drive San Jose, CA 95111 $548,000 1,008 sq. ft. 4,356 sq. ft. $544
2018-09-08 Condo Contemporary 663 Modern Ice Drive San Jose, CA 95112 $898,000 1,224 sq. ft. 871 sq. ft. $734
2018-09-08 Condo 5365 Cribari Crest San Jose, CA 95135 $448,000 1,223 sq. ft. 4,792 sq. ft. $366
2018-09-07 Condo 4711 Holston River Court San Jose, CA 95136 $797,000 1,496 sq. ft. 1,742 sq. ft. $533
2018-09-07 Condo 5701 Calmor Avenue San Jose, CA 95123 $495,000 903 sq. ft. 3,049 sq. ft. $548
2018-09-07 Condo 1550 Technology Drive San Jose, CA 95110 $599,000 665 sq. ft. 871 sq. ft. $901
2018-09-07 Condo 1662 La Terrace Circle San Jose, CA 95123 $725,000 1,138 sq. ft. 17,424 sq. ft. $637
2018-09-07 Condo 545 Cassatt Way San Jose, CA 95125 $839,950 1,294 sq. ft. 2,178 sq. ft. $649
2018-09-07 Condo 5434 Colony Green Drive San Jose, CA 95123 $535,000 919 sq. ft. 871 sq. ft. $582
2018-09-07 Condo 435 Willow Glen Court San Jose, CA 95125 $998,000 1,671 sq. ft. 871 sq. ft. $597
2018-09-07 Condo 801 Winchester Boulevard San Jose, CA 95128 $679,000 692 sq. ft. 871 sq. ft. $981
2018-09-07 Condo 6253 Tibouchina Lane San Jose, CA 95119 $740,000 1,293 sq. ft. 436 sq. ft. $572
2018-09-07 Condo 3659 Cabernet Vineyards Circle San Jose, CA 95117 $998,000 1,656 sq. ft. 1,307 sq. ft. $603
2018-09-07 Condo 1322 Shore Drive San Jose, CA 95131 $1,089,000 1,671 sq. ft. 871 sq. ft. $652
2018-09-07 Condo 3314 Shadow Park Place San Jose, CA 95121 $449,000 888 sq. ft. 871 sq. ft. $506
2018-09-06 Condo Contemporary 1114 Library Lane San Jose, CA 95116 $779,000 1,101 sq. ft. 1,307 sq. ft. $708
2018-09-06 Condo 367 Maeve Court San Jose, CA 95136 $849,000 1,376 sq. ft. 3,485 sq. ft. $617
2018-09-06 Condo 476 22nd Street San Jose, CA 95116 $869,000 1,917 sq. ft. 871 sq. ft. $453
2018-09-06 Condo Contemporary 1508 Marburg Way San Jose, CA 95133 $848,888 1,448 sq. ft. 871 sq. ft. $586
2018-09-06 Condo Contemporary 912 Rancho Place San Jose, CA 95126 $988,000 1,644 sq. ft. 871 sq. ft. $601
2018-09-06 Condo 388 Caribe Way San Jose, CA 95133 $558,000 1,067 sq. ft. 871 sq. ft. $523
2018-09-06 Condo Spanish 611 La Maison Drive San Jose, CA 95128 $799,000 1,104 sq. ft. 4,356 sq. ft. $724
2018-09-06 Condo 5806 Brandon Court San Jose, CA 95123 $989,000 2,205 sq. ft. 1,307 sq. ft. $449
2018-09-06 Condo 1658 Parkview Green Circle San Jose, CA 95131 $875,000 1,092 sq. ft. 1,742 sq. ft. $801
2018-09-06 Condo 400 1st Street San Jose, CA 95112 $698,000 1,292 sq. ft. 871 sq. ft. $540
2018-09-06 Condo 1751 Braddock Court San Jose, CA 95125 $748,000 995 sq. ft. 871 sq. ft. $752
2018-09-06 Condo 475 Milan Drive San Jose, CA 95134 $949,000 1,088 sq. ft. 25,265 sq. ft. $872
2018-09-06 Condo 3072 Ironside Court San Jose, CA 95132 $649,000 900 sq. ft. 1,742 sq. ft. $721
2018-09-06 Condo 358 Olive Hill Drive San Jose, CA 95125 $815,000 1,368 sq. ft. 871 sq. ft. $596
2018-09-06 Condo 8706 Lomas Azules Place San Jose, CA 95135 $980,000 2,043 sq. ft. 2,614 sq. ft. $480
2018-09-06 Condo Contemporary 5711 Calmor Avenue San Jose, CA 95123 $525,000 903 sq. ft. 3,049 sq. ft. $581
2018-09-05 Condo Traditional 6200 Barb Werner Lane San Jose, CA 95119 $749,000 1,252 sq. ft. 871 sq. ft. $598
2018-09-05 Condo 1445 Fruitdale Avenue San Jose, CA 95128 $759,888 1,170 sq. ft. 1,307 sq. ft. $649
2018-09-05 Condo Spanish 74 Ryland Park Way San Jose, CA 95110 $1,198,000 1,697 sq. ft. 1,307 sq. ft. $706
2018-09-05 Condo 706 Whitewater Court San Jose, CA 95133 $645,000 1,113 sq. ft. 436 sq. ft. $580
2018-09-05 Condo 5579 Judith Street San Jose, CA 95123 $439,000 798 sq. ft. 3,049 sq. ft. $550
2018-09-05 Condo 126 Kenbrook Circle San Jose, CA 95111 $498,000 950 sq. ft. 3,920 sq. ft. $524
2018-09-05 Condo 4582 Powderborn Court San Jose, CA 95136 $699,000 1,104 sq. ft. 2,178 sq. ft. $633
2018-09-05 Condo 1304 Joplin Drive San Jose, CA 95118 $419,000 798 sq. ft. 3,049 sq. ft. $525
2018-09-05 Condo 635 Berryessa Road San Jose, CA 95112 $599,000 1,567 sq. ft. 871 sq. ft. $382
2018-09-05 Condo Contemporary 1550 Technology Drive San Jose, CA 95110 $649,000 875 sq. ft. 871 sq. ft. $742
2018-09-05 Condo Contemporary 1244 Tea Rose San Jose, CA 95131 $1,148,000 1,920 sq. ft. 1,307 sq. ft. $598
2018-09-05 Condo Contemporary 1727 Cherryhills Lane San Jose, CA 95125 $1,198,000 2,010 sq. ft. 2,178 sq. ft. $596
2018-09-04 Condo 3233 Vineyard Park Way San Jose, CA 95135 $848,000 1,398 sq. ft. 871 sq. ft. $607
2018-09-04 Condo 5325 Silver Point Way San Jose, CA 95138 $899,888 2,332 sq. ft. 2,614 sq. ft. $386
2018-09-04 Condo 149 Aguacate Ct San Jose, CA 95116 $599,000 1,180 sq. ft. 871 sq. ft. $508
2018-09-04 Condo Contemporary 149 Aguacate Ct San Jose, CA 95116 $598,000 1,180 sq. ft. 871 sq. ft. $507
2018-09-04 Condo 1475 De Rose Way San Jose, CA 95126 $738,950 1,224 sq. ft. $604
2018-09-04 Condo 5693 Makati Circle San Jose, CA 95123 $498,000 690 sq. ft. 436 sq. ft. $722
2018-09-04 Condo 2151 Sunstruck Court San Jose, CA 95125 $799,999 1,340 sq. ft. 2,178 sq. ft. $597
2018-09-03 Condo 1332 Shelby Creek Lane San Jose, CA 95120 $999,999 1,155 sq. ft. 3,920 sq. ft. $866
2018-09-03 Condo 125 Patterson Street San Jose, CA 95112 $699,000 1,061 sq. ft. 871 sq. ft. $659
2018-09-03 Condo 144 3rd Street San Jose, CA 95112 $699,000 1,023 sq. ft. 436 sq. ft. $683
2018-08-31 Condo 8026 Pinot Noir Court San Jose, CA 95135 $678,000 1,497 sq. ft. 2,178 sq. ft. $453
2018-08-31 Condo 46 Julian Street San Jose, CA 95110 $980,000 1,596 sq. ft. 29,185 sq. ft. $614
2018-08-31 Condo 641 Balfour Drive San Jose, CA 95111 $499,888 867 sq. ft. 436 sq. ft. $577
2018-08-31 Condo 5408 Makati Circle San Jose, CA 95123 $639,999 1,233 sq. ft. 1,307 sq. ft. $519
2018-08-30 Condo 609 Shadow Dance Drive San Jose, CA 95110 $675,000 871 sq. ft. 871 sq. ft. $775
2018-08-30 Condo 564 King George Avenue San Jose, CA 95136 $749,000 1,104 sq. ft. 3,920 sq. ft. $678
2018-08-30 Condo 3245 Shadow Park Place San Jose, CA 95121 $438,888 888 sq. ft. 871 sq. ft. $494
2018-08-30 Condo 55 Silcreek Drive San Jose, CA 95116 $558,000 1,313 sq. ft. 3,049 sq. ft. $425
2018-08-29 Condo Ranch 3505 La Terrace Circle San Jose, CA 95123 $519,950 650 sq. ft. 3,049 sq. ft. $800
2018-08-29 Condo 1054 Summermist Court San Jose, CA 95122 $428,000 720 sq. ft. 436 sq. ft. $594
2018-08-29 Condo 1054 Summermist Ct San Jose, CA 95122 $428,000 720 sq. ft. 436 sq. ft. $594
2018-08-29 Condo 4555 Powderborn Court San Jose, CA 95136 $779,000 1,760 sq. ft. 1,742 sq. ft. $443
2018-08-29 Condo 144 3rd Street San Jose, CA 95112 $920,000 1,800 sq. ft. 937 sq. ft. $511
2018-08-28 Condo 293 Tradewinds Drive San Jose, CA 95123 $615,000 1,252 sq. ft. 1,307 sq. ft. $491
2018-08-28 Condo Contemporary 1792 Bevin Brook Drive San Jose, CA 95112 $628,888 955 sq. ft. 1,307 sq. ft. $659
2018-08-28 Condo 5510 Makati Circle San Jose, CA 95123 $568,000 924 sq. ft. 1,307 sq. ft. $615
2018-08-28 Condo 332 Vista Roma Way San Jose, CA 95136 $898,000 1,674 sq. ft. 871 sq. ft. $536
2018-08-27 Condo Traditional 281 Stonegate Circle San Jose, CA 95110 $449,000 704 sq. ft. 3,485 sq. ft. $638
2018-08-27 Condo Mediterranean 1550 Technology Drive San Jose, CA 95110 $775,000 1,133 sq. ft. 871 sq. ft. $684
2018-08-26 Condo 1393 Meadow Ridge Circle San Jose, CA 95131 $798,000 1,203 sq. ft. 1,307 sq. ft. $663
2018-08-26 Condo 495 Hollyberry Court San Jose, CA 95129 $949,000 1,306 sq. ft. 1,307 sq. ft. $727
2018-08-25 Condo 7333 Via Laguna San Jose, CA 95135 $648,000 1,442 sq. ft. 11,761 sq. ft. $449
2018-08-24 Condo 325 Blossom Hill Road San Jose, CA 95123 $448,888 810 sq. ft. 3,049 sq. ft. $554
2018-08-24 Condo 5326 Borneo Circle San Jose, CA 95123 $599,000 1,246 sq. ft. 7,405 sq. ft. $481
2018-08-24 Condo 3093 Lina Lane San Jose, CA 95136 $939,000 1,813 sq. ft. 871 sq. ft. $518
2018-08-24 Condo 1495 De Rose Way San Jose, CA 95126 $739,800 1,224 sq. ft. 5,663 sq. ft. $604
2018-08-24 Condo 6293 Island Pine Way San Jose, CA 95119 $799,000 1,318 sq. ft. 436 sq. ft. $606
2018-08-24 Condo Contemporary 4292 Voltaire Street San Jose, CA 95135 $1,129,000 1,601 sq. ft. 2,614 sq. ft. $705
2018-08-24 Condo 4001 Gold Run San Jose, CA 95136 $649,000 875 sq. ft. 1,307 sq. ft. $742
2018-08-24 Condo 206 San Pedro Circle San Jose, CA 95110 $785,000 1,242 sq. ft. 6,098 sq. ft. $632
2018-08-23 Condo 1450 Four Oaks Circle San Jose, CA 95131 $749,000 1,136 sq. ft. 1,307 sq. ft. $659
2018-08-23 Condo Contemporary 5933 Sunstone Drive San Jose, CA 95123 $807,880 1,316 sq. ft. $614
2018-08-23 Condo Contemporary 5933 Sunstone Drive San Jose, CA 95123 $910,880 1,736 sq. ft. $525
2018-08-23 Condo 319 Tradewinds Drive San Jose, CA 95123 $599,000 1,122 sq. ft. 6,098 sq. ft. $534
2018-08-23 Condo 1917 Galileo Lane San Jose, CA 95133 $1,149,890 1,988 sq. ft. 871 sq. ft. $578
2018-08-23 Condo Contemporary 1917 Galileo San Jose, CA 95133 $1,149,890 1,988 sq. ft. 871 sq. ft. $578
2018-08-23 Condo 582 Manzana Place San Jose, CA 95112 $850,000 1,336 sq. ft. 30,557 sq. ft. $636
2018-08-23 Condo 5407 Colony Green Drive San Jose, CA 95123 $714,999 1,294 sq. ft. 871 sq. ft. $553
2018-08-23 Condo 2630 Heritage Park Circle San Jose, CA 95132 $1,180,000 1,859 sq. ft. 3,485 sq. ft. $635
2018-08-23 Condo 2535 Gimelli Court San Jose, CA 95133 $595,000 1,100 sq. ft. 1,307 sq. ft. $541
2018-08-22 Condo 2621 Senter Creek Ct San Jose, CA 95111 $572,000 1,146 sq. ft. 1,307 sq. ft. $499
2018-08-22 Condo 109 Kenbrook Circle San Jose, CA 95111 $420,000 724 sq. ft. 3,485 sq. ft. $580
2018-08-22 Condo 253 Sumba Ct San Jose, CA 95123 $659,999 1,122 sq. ft. 1,307 sq. ft. $588
2018-08-22 Condo Mediterranean 2691 Villa Cortona Way San Jose, CA 95125 $899,000 1,888 sq. ft. 1,307 sq. ft. $476
2018-08-22 Condo 1071 Dewberry Place San Jose, CA 95131 $1,168,000 1,867 sq. ft. 871 sq. ft. $626
2018-08-22 Condo Contemporary 1073 Foxglove Place San Jose, CA 95131 $1,180,000 1,884 sq. ft. 871 sq. ft. $626
2018-08-22 Condo Contemporary 1191 Tea Rose Circle San Jose, CA 95131 $948,000 1,457 sq. ft. 1,742 sq. ft. $651
2018-08-21 Condo 38 Almaden Boulevard San Jose, CA 95110 $1,229,000 1,306 sq. ft. 21,344 sq. ft. $941
2018-08-21 Condo 79 Silcreek Drive San Jose, CA 95116 $539,000 1,313 sq. ft. 3,049 sq. ft. $411
2018-08-20 Condo 1490 La Boheme Street San Jose, CA 95121 $545,999 1,176 sq. ft. 871 sq. ft. $464
2018-08-20 Condo 6709 Leatherwood Court San Jose, CA 95120 $1,034,000 1,602 sq. ft. 1,742 sq. ft. $645
2018-08-20 Condo 5152 Cribari Place San Jose, CA 95135 $440,000 947 sq. ft. 5,663 sq. ft. $465
2018-08-19 Condo Contemporary 1199 Tea Rose Circle San Jose, CA 95131 $799,000 1,157 sq. ft. 871 sq. ft. $691
2018-08-18 Condo 308 Jackson Street San Jose, CA 95112 $799,000 1,280 sq. ft. 6,970 sq. ft. $624
2018-08-18 Condo Contemporary 325 Esfahan Court San Jose, CA 95111 $779,000 1,347 sq. ft. 871 sq. ft. $578
2018-08-17 Condo 4784 Archbow Court San Jose, CA 95136 $789,000 1,452 sq. ft. 1,307 sq. ft. $543
2018-08-17 Condo 762 Dragonfly Court San Jose, CA 95133 $689,888 1,042 sq. ft. 1,307 sq. ft. $662
2018-08-17 Condo 3152 Vinifera Drive San Jose, CA 95135 $1,049,000 1,628 sq. ft. 871 sq. ft. $644
2018-08-17 Condo 5336 Monterey Highway San Jose, CA 95111 $468,000 950 sq. ft. 1,307 sq. ft. $493
2018-08-17 Condo 435 2nd Street San Jose, CA 95112 $848,000 1,548 sq. ft. 871 sq. ft. $548
2018-08-17 Condo Mediterranean 6639 Bunker Hill Court San Jose, CA 95120 $880,000 1,138 sq. ft. 2,178 sq. ft. $773
2018-08-17 Condo 5318 Cribari Glen San Jose, CA 95135 $500,000 1,240 sq. ft. 1,742 sq. ft. $403
2018-08-17 Condo 6219 Balsamo Drive San Jose, CA 95129 $1,749,990 1,904 sq. ft. 2,614 sq. ft. $919
2018-08-16 Condo 1887 Sheri Ann Circle San Jose, CA 95131 $818,000 1,157 sq. ft. 1,742 sq. ft. $707
2018-08-16 Condo Contemporary 1259 Sierra Village Place San Jose, CA 95132 $909,950 1,537 sq. ft. 1,742 sq. ft. $592
2018-08-16 Condo 2183 Pomme Court San Jose, CA 95125 $899,000 1,731 sq. ft. 1,307 sq. ft. $519
2018-08-16 Condo Contemporary 20 Ryland Park Drive San Jose, CA 95110 $849,000 1,270 sq. ft. 871 sq. ft. $668
2018-08-16 Condo 2221 Winepol Loop San Jose, CA 95125 $799,000 1,144 sq. ft. 1,742 sq. ft. $698
2018-08-16 Condo 453 Don Edgardo Court San Jose, CA 95123 $599,000 950 sq. ft. 871 sq. ft. $631
2018-08-16 Condo 6901 Rodling Drive San Jose, CA 95138 $575,000 850 sq. ft. 1,307 sq. ft. $676
2018-08-15 Condo 4190 Lautrec Drive San Jose, CA 95135 $1,089,000 1,532 sq. ft. 2,614 sq. ft. $711
2018-08-15 Condo Contemporary 2133 Oakland Road San Jose, CA 95131 $1,175,000 1,573 sq. ft. 871 sq. ft. $747
2018-08-15 Condo Contemporary 732 Bonita Avenue San Jose, CA 95116 $569,000 1,010 sq. ft. 436 sq. ft. $563
2018-08-15 Condo 1163 Yarwood Court San Jose, CA 95128 $669,000 922 sq. ft. 1,307 sq. ft. $726
2018-08-15 Condo 88 Jackson Avenue San Jose, CA 95116 $575,125 1,056 sq. ft. 1,307 sq. ft. $545
2018-08-15 Condo 2276 Almaden Road San Jose, CA 95125 $925,000 1,628 sq. ft. 871 sq. ft. $568
2018-08-14 Condo 88 Bush Street San Jose, CA 95126 $985,000 1,256 sq. ft. 71,003 sq. ft. $784
2018-08-14 Condo 757 Warring Drive San Jose, CA 95123 $475,000 903 sq. ft. 3,049 sq. ft. $526
2018-08-14 Condo 1010 Hyde Avenue San Jose, CA 95129 $1,750,000 2,330 sq. ft. 2,178 sq. ft. $751
2018-08-13 Condo 283 Tradewinds Drive San Jose, CA 95123 $515,000 992 sq. ft. 871 sq. ft. $519
2018-08-10 Condo 38 Almaden Boulevard San Jose, CA 95110 $1,179,000 1,306 sq. ft. 21,344 sq. ft. $903
2018-08-10 Condo 125 Patterson Street San Jose, CA 95112 $550,000 1,045 sq. ft. 871 sq. ft. $526
2018-08-09 Condo Traditional 5537 Judith Street San Jose, CA 95123 $459,900 903 sq. ft. 3,049 sq. ft. $509
2018-08-09 Condo 5934 Drytown Place San Jose, CA 95120 $1,098,000 2,454 sq. ft. 2,614 sq. ft. $447
2018-08-09 Condo 7062 Cypress Point Court San Jose, CA 95139 $699,000 1,656 sq. ft. 2,178 sq. ft. $422
2018-08-09 Condo 6609 Folklore Court San Jose, CA 95120 $849,950 1,124 sq. ft. 2,178 sq. ft. $756
2018-08-08 Condo 3148 Heather Ridge Drive San Jose, CA 95136 $700,000 1,067 sq. ft. 5,663 sq. ft. $656
2018-08-08 Condo 239 Grayson Terrace San Jose, CA 95126 $989,000 1,581 sq. ft. 436 sq. ft. $626
2018-08-08 Condo 1254 Fairweather Lake Common San Jose, CA 95131 $885,000 1,181 sq. ft. 871 sq. ft. $749
2018-08-07 Condo 5367 Colony Green Drive San Jose, CA 95123 $699,950 1,294 sq. ft. 871 sq. ft. $541
2018-08-07 Condo Contemporary 1722 Bevin Brook Drive San Jose, CA 95112 $590,000 955 sq. ft. 1,307 sq. ft. $618
2018-08-06 Condo Contemporary; Mediterranean 952 11th Street San Jose, CA 95112 $695,000 1,241 sq. ft. 1,307 sq. ft. $560
2018-08-05 Condo 621 Blackbury Lane San Jose, CA 95133 $1,053,990 1,640 sq. ft. $643
2018-08-05 Condo 1905 Nevets Lane San Jose, CA 95133 $1,192,990 1,894 sq. ft. $630
2018-08-04 Condo Contemporary 423 Coyote Creek Circle San Jose, CA 95116 $510,000 849 sq. ft. 4,356 sq. ft. $601
2018-08-04 Condo 1835 Dobbin Drive San Jose, CA 95133 $999,990 1,356 sq. ft. $737
2018-08-03 Condo 295 Chynoweth Avenue San Jose, CA 95136 $650,000 1,296 sq. ft. 871 sq. ft. $502
2018-08-03 Condo 801 Winchester Boulevard San Jose, CA 95128 $675,888 692 sq. ft. 871 sq. ft. $977
2018-08-02 Condo 3115 Heather Ridge Drive San Jose, CA 95136 $650,000 1,067 sq. ft. 4,356 sq. ft. $609
2018-08-02 Condo 4047 Truckee Court San Jose, CA 95136 $678,000 1,272 sq. ft. 1,307 sq. ft. $533
2018-08-02 Condo 71 Silcreek Drive San Jose, CA 95116 $528,888 1,318 sq. ft. 3,049 sq. ft. $401
2018-08-01 Condo Traditional 1015 Foxchase Drive San Jose, CA 95123 $565,000 916 sq. ft. 5,663 sq. ft. $617
2018-08-01 Condo 388 Ribbonwood Avenue San Jose, CA 95123 $799,999 1,378 sq. ft. 871 sq. ft. $581
2018-07-31 Condo 2610 Tosca Way San Jose, CA 95121 $549,000 1,176 sq. ft. 871 sq. ft. $467
2018-07-31 Condo 1962 Prince George Drive San Jose, CA 95116 $335,000 456 sq. ft. 436 sq. ft. $735
2018-07-30 Condo 4633 Adobe River Court San Jose, CA 95136 $735,000 1,104 sq. ft. 2,178 sq. ft. $666
2018-07-27 Condo 350 2nd Street San Jose, CA 95112 $795,000 1,238 sq. ft. 871 sq. ft. $642
2018-07-27 Condo 72 Rancho Drive San Jose, CA 95111 $490,000 918 sq. ft. 4,792 sq. ft. $534
2018-07-26 Condo 5372 Borneo Circle San Jose, CA 95123 $599,999 1,122 sq. ft. 7,405 sq. ft. $535
2018-07-26 Condo 1483 Lakme Way San Jose, CA 95121 $438,888 884 sq. ft. 1,307 sq. ft. $496
2018-07-25 Condo 144 3rd Street San Jose, CA 95112 $699,950 936 sq. ft. 1,307 sq. ft. $748
2018-07-25 Condo 1025 Bellante San Jose, CA 95131 $983,819 1,171 sq. ft. 1,307 sq. ft. $840
2018-07-22 Condo 5535 Don Juan Circle San Jose, CA 95123 $650,000 1,156 sq. ft. 871 sq. ft. $562
2018-07-22 Condo 1407 La Terrace Circle San Jose, CA 95123 $665,000 995 sq. ft. 3,485 sq. ft. $668
2018-07-19 Condo 8699 Lomas Azules Place San Jose, CA 95135 $999,900 2,209 sq. ft. 436 sq. ft. $453
2018-07-19 Condo Traditional 9069 Village View Loop San Jose, CA 95135 $1,125,000 2,248 sq. ft. 2,614 sq. ft. $500
2018-07-19 Condo 1497 Glenpine Drive San Jose, CA 95125 $849,000 1,008 sq. ft. 1,742 sq. ft. $842
2018-07-19 Condo 4295 Voltaire Street San Jose, CA 95135 $1,098,800 1,532 sq. ft. 2,178 sq. ft. $717
2018-07-18 Condo 123 Escazu Court San Jose, CA 95116 $545,000 1,474 sq. ft. 871 sq. ft. $370
2018-07-18 Condo 3 Esfahan Drive San Jose, CA 95111 $889,888 1,838 sq. ft. 871 sq. ft. $484
2018-07-18 Condo 55 Muirfield Court San Jose, CA 95116 $549,000 1,054 sq. ft. 436 sq. ft. $521
2018-07-17 Condo 30 Julian Street San Jose, CA 95112 $1,179,000 1,949 sq. ft. 1,194 sq. ft. $605
2018-07-15 Condo 4020 Williams Road San Jose, CA 95117 $848,000 1,053 sq. ft. 871 sq. ft. $805
2018-07-14 Condo 605 Balfour Drive San Jose, CA 95111 $448,888 672 sq. ft. 871 sq. ft. $668
2018-07-13 Condo Contemporary 5951 Sunstone Drive San Jose, CA 95123 $800,880 1,261 sq. ft. $635
2018-07-13 Condo Craftsman 2797 Ferrara Circle San Jose, CA 95111 $895,888 1,856 sq. ft. 871 sq. ft. $483
2018-07-13 Condo Contemporary 5951 Sunstone Drive San Jose, CA 95123 $900,880 1,706 sq. ft. $528
2018-07-13 Condo Craftsman 2797 Ferrara Cir San Jose, CA 95111 $895,888 1,856 sq. ft. 871 sq. ft. $483
2018-07-13 Condo 1731 Braddock Court San Jose, CA 95125 $629,000 841 sq. ft. 1,307 sq. ft. $748
2018-07-13 Condo 1030 Owsley Avenue San Jose, CA 95122 $655,000 1,036 sq. ft. 1,307 sq. ft. $632
2018-07-13 Condo 1063 Summershore Court San Jose, CA 95122 $549,000 1,094 sq. ft. 436 sq. ft. $502
2018-07-13 Condo 1802 Schweppes Court San Jose, CA 95132 $658,000 988 sq. ft. 871 sq. ft. $666
2018-07-12 Condo 795 Golden Creek Terrace San Jose, CA 95111 $649,000 1,536 sq. ft. 871 sq. ft. $423
2018-07-11 Condo 1573 De Rome Drive San Jose, CA 95131 $904,000 1,171 sq. ft. $772
2018-07-11 Condo 1410 Alma Way San Jose, CA 95125 $665,000 1,071 sq. ft. 871 sq. ft. $621
2018-07-11 Condo Contemporary 1055 Capitol Avenue San Jose, CA 95133 $638,800 832 sq. ft. 871 sq. ft. $768
2018-07-09 Condo 1375 Lick Avenue San Jose, CA 95110 $628,000 733 sq. ft. $857
2018-07-09 Condo 580 Palmetto Drive San Jose, CA 95111 $568,888 1,157 sq. ft. 1,307 sq. ft. $492
2018-07-09 Condo Contemporary 1375 Lick Ave San Jose, CA 95110 $628,000 733 sq. ft. 1,307 sq. ft. $857
2018-07-09 Condo Contemporary 6586 Boston Post Court San Jose, CA 95120 $1,135,000 1,451 sq. ft. 1,742 sq. ft. $782
2018-07-07 Condo 3584 Gum Tree Drive San Jose, CA 95111 $459,999 1,017 sq. ft. 1,307 sq. ft. $452
2018-07-03 Condo Contemporary 633 Blackbury Lane San Jose, CA 95133 $1,053,990 1,640 sq. ft. $643
2018-07-03 Condo 1587 De Rome San Jose, CA 95131 $1,287,000 1,847 sq. ft. 1,742 sq. ft. $697
2018-07-03 Condo 487 Sieber Court San Jose, CA 95111 $455,000 762 sq. ft. 871 sq. ft. $597